This is the latest recevied weather packets stored in our database for station/object OE-11208. If no packets are shown the sender has not sent any weather packets the latest 10 day(s).
| Time | Temp. | Humidity | Pressure | Rain* | Wind** | Luminosity | Snow |
|---|---|---|---|---|---|---|---|
| 1788009094 | 21.11° C | 54% | 1014.9 hPa | 0 mm | - | 316 W/m² | - |
| 1788008722 | 21.67° C | 54% | 1014.8 hPa | 0 mm | - | 477 W/m² | - |
| 1788008122 | 21.11° C | 52% | 1014.9 hPa | 0 mm | - | 518 W/m² | - |
| 1788007295 | 21.11° C | 52% | 1015.2 hPa | 0 mm | - | 471 W/m² | - |
| 1788006922 | 21.67° C | 53% | 1015.2 hPa | 0 mm | - | 484 W/m² | - |
| 1788006322 | 21.11° C | 53% | 1015.5 hPa | 0 mm | - | 504 W/m² | - |
| 1788005494 | 20.56° C | 49% | 1015.7 hPa | 0 mm | - | 397 W/m² | - |
| 1788005122 | 20.56° C | 57% | 1015.8 hPa | 0 mm | - | 525 W/m² | - |
| 1788004522 | 20° C | 50% | 1016.1 hPa | 0 mm | - | 699 W/m² | - |
| 1788003695 | 20.56° C | 51% | 1016.2 hPa | 0 mm | - | 538 W/m² | - |
| 1788003322 | 20° C | 57% | 1016.3 hPa | 0 mm | - | 625 W/m² | - |
| 1788002722 | 20° C | 62% | 1016.5 hPa | 0 mm | - | 491 W/m² | - |
| 1788001895 | 19.44° C | 60% | 1016.7 hPa | 0 mm | - | 464 W/m² | - |
| 1788001522 | 18.89° C | 62% | 1016.9 hPa | 0 mm | - | 464 W/m² | - |
| 1788000922 | 18.89° C | 64% | 1016.9 hPa | 0 mm | - | 605 W/m² | - |
| 1788000095 | 18.89° C | 63% | 1017 hPa | 0 mm | - | 706 W/m² | - |
| 1787999722 | 18.89° C | 62% | 1017.1 hPa | 0 mm | - | 545 W/m² | - |
| 1787999122 | 18.33° C | 66% | 1017.4 hPa | 0 mm | - | 551 W/m² | - |
| 1787998295 | 18.33° C | 67% | 1017.5 hPa | 0 mm | - | 713 W/m² | - |
| 1787997921 | 17.78° C | 72% | 1017.9 hPa | 0 mm | - | 457 W/m² | - |
| 1787997322 | 17.78° C | 70% | 1018 hPa | 0 mm | - | 578 W/m² | - |
| 1787996495 | 17.22° C | 72% | 1018.1 hPa | 0 mm | - | 430 W/m² | - |
| 1787996122 | 17.22° C | 74% | 1018.3 hPa | 0 mm | - | 498 W/m² | - |
| 1787995522 | 16.67° C | 72% | 1018.5 hPa | 0 mm | - | 592 W/m² | - |
| 1787994695 | 16.67° C | 76% | 1018.7 hPa | 0 mm | - | 652 W/m² | - |
* Rain latest hour (hover to see other rain measurements)
** Current wind speed in m/s (hover to see current wind gust speed)